SBSL/SLZ METAR and TAF weather

Enter ICAO airport designator
Station Type Date Time Source
SBSL METAR 2019/12/12 17:00 UTC NOAA

SBSL 121700Z 01014KT 9999 SCT020 31/24 Q1008


Station Type Date Time Source
SBSL Decoded METAR 2019/12/12 17:00 UTC NOAA

Sao Luiz Aeroporto , Brazil (SBSL) 02-36S 044-14W 53M
Dec 12, 2019 - 12:00 PM EST / 2019.12.12 1700 UTC
Wind: from the N (010 degrees) at 16 MPH (14 KT):0
Visibility: greater than 7 mile(s):0
Sky conditions: partly cloudy
Temperature: 87 F (31 C)
Heat index: 95.7 F (35.4 C):1
Dew Point: 75 F (24 C)
Relative Humidity: 66%
Pressure (altimeter): 29.77 in. Hg (1008 hPa)
ob: SBSL 121700Z 01014KT 9999 SCT020 31/24 Q1008
cycle: 17

Station Type Date Time Source
SBSL TAF 2019/12/12 18:51 UTC NOAA

TAF SBSL 121500Z 1218/1318 05015KT 9999 BKN020 TX30/1219Z TN26/1309Z
BECMG 1300/1302 03010KT
BECMG 1310/1312 BKN017 FEW025TCU
BECMG 1316/1318 02015KT BKN020
RMK PGY

Example: see airport list